Time;durP1;ratioP1;P1;durP2;ratioP2;P2;SDS_P1;SDS_P2;PMS_P1;PMS_P2;Temp;Humidity;BMP_temperature;BMP_pressure;BME280_temperature;BME280_humidity;BME280_pressure;Samples;Min_cycle;Max_cycle;Signal;HPM_P1;HPM_P2
2020/12/17 00:00:55;;;;;;;28.60;22.07;;;6.30;99.90;;;;;;5122261;27;20503;-90
2020/12/17 00:03:22;;;;;;;25.83;20.57;;;6.40;99.90;;;;;;5120708;27;20996;-91
2020/12/17 00:05:49;;;;;;;24.87;21.03;;;6.40;99.90;;;;;;5120690;27;20433;-90
2020/12/17 00:08:18;;;;;;;28.10;22.47;;;6.40;99.90;;;;;;5122458;27;20436;-89
2020/12/17 00:10:47;;;;;;;29.53;24.17;;;6.40;99.90;;;;;;5120183;27;20499;-90
2020/12/17 00:13:14;;;;;;;32.37;23.10;;;6.40;99.90;;;;;;5117609;27;20445;-89
2020/12/17 00:15:40;;;;;;;28.30;22.57;;;6.30;99.90;;;;;;5122066;27;20464;-90
2020/12/17 00:18:07;;;;;;;27.67;22.07;;;6.30;99.90;;;;;;5122469;27;20437;-90
2020/12/17 00:20:35;;;;;;;27.30;22.17;;;6.40;99.90;;;;;;5122365;27;20466;-89
2020/12/17 00:23:01;;;;;;;28.77;23.70;;;6.30;99.90;;;;;;5116926;27;20496;-89
2020/12/17 00:25:31;;;;;;;29.73;24.30;;;6.30;99.90;;;;;;5121968;27;20455;-90
2020/12/17 00:27:57;;;;;;;25.30;19.97;;;6.30;99.90;;;;;;5121282;27;20527;-90
2020/12/17 00:30:32;;;;;;;24.77;21.30;;;6.30;99.90;;;;;;5126516;22;20491;-90
2020/12/17 00:36:59;;;;;;;27.60;20.97;;;6.30;99.90;;;;;;5037264;28;20443;-90
2020/12/17 00:54:52;;;;;;;25.83;19.27;;;6.00;99.90;;;;;;5080857;28;20474;-89
2020/12/17 00:57:24;;;;;;;25.33;20.07;;;6.00;99.90;;;;;;5080356;28;20947;-88
2020/12/17 01:05:35;;;;;;;24.93;20.47;;;5.90;99.90;;;;;;5019098;28;20516;-89
2020/12/17 01:11:51;;;;;;;26.40;21.63;;;5.90;99.90;;;;;;4962231;28;20452;-88
2020/12/17 01:29:26;;;;;;;22.17;19.00;;;5.70;99.90;;;;;;4926496;28;20443;-89
2020/12/17 01:35:02;;;;;;;25.20;19.97;;;5.60;99.90;;;;;;4932642;29;20468;-90
2020/12/17 01:40:53;;;;;;;21.27;19.07;;;5.50;99.90;;;;;;4917229;28;21014;-90
2020/12/17 01:44:26;;;;;;;23.67;18.57;;;5.50;99.90;;;;;;5033963;28;20480;-90
2020/12/17 01:57:48;;;;;;;25.30;19.43;;;5.40;99.90;;;;;;4895596;29;21017;-90
2020/12/17 02:00:48;;;;;;;27.87;20.37;;;5.40;99.90;;;;;;4919766;29;20451;-88
2020/12/17 02:04:04;;;;;;;28.50;19.77;;;5.40;99.90;;;;;;4893325;29;20482;-89
2020/12/17 02:07:09;;;;;;;20.30;17.17;;;5.40;99.90;;;;;;4935855;29;20515;-90
2020/12/17 02:24:16;;;;;;;22.90;19.60;;;5.20;99.90;;;;;;5003190;28;20485;-90
2020/12/17 02:26:43;;;;;;;24.50;19.70;;;5.10;99.90;;;;;;4935315;28;20450;-90
2020/12/17 02:29:10;;;;;;;23.37;19.60;;;5.20;99.90;;;;;;5024754;28;20449;-89
2020/12/17 02:31:37;;;;;;;28.10;19.73;;;5.20;99.90;;;;;;5032413;28;20477;-89
2020/12/17 02:34:05;;;;;;;29.43;19.77;;;5.20;99.90;;;;;;5033237;28;20512;-89
2020/12/17 02:36:31;;;;;;;24.27;20.07;;;5.20;99.90;;;;;;5032561;28;20808;-90
2020/12/17 02:38:58;;;;;;;25.20;20.77;;;5.20;99.90;;;;;;5032707;28;20449;-89
2020/12/17 02:41:24;;;;;;;28.83;25.77;;;5.20;99.90;;;;;;5032663;28;20472;-89
2020/12/17 02:43:52;;;;;;;28.53;22.40;;;5.10;99.90;;;;;;5032314;28;20525;-90
2020/12/17 02:46:19;;;;;;;26.10;23.30;;;5.00;99.90;;;;;;5032642;28;20472;-88
2020/12/17 02:48:49;;;;;;;30.53;25.43;;;5.00;99.90;;;;;;5031056;28;20452;-89
2020/12/17 02:51:15;;;;;;;27.83;24.57;;;5.00;99.90;;;;;;5032890;28;20491;-89
2020/12/17 02:53:41;;;;;;;28.27;25.47;;;5.10;99.90;;;;;;5032511;28;20453;-90
2020/12/17 02:56:07;;;;;;;33.50;27.17;;;5.00;99.90;;;;;;5032158;28;20988;-89
2020/12/17 02:58:33;;;;;;;29.43;26.30;;;5.00;99.90;;;;;;5032333;28;20454;-89
2020/12/17 03:01:00;;;;;;;28.13;25.13;;;5.00;99.90;;;;;;5030729;28;20544;-89
2020/12/17 03:03:26;;;;;;;28.53;25.30;;;5.00;99.90;;;;;;5032238;28;20477;-90
2020/12/17 03:05:53;;;;;;;32.80;28.33;;;4.90;99.90;;;;;;5032196;28;20426;-88
2020/12/17 03:08:19;;;;;;;28.80;25.70;;;5.00;99.90;;;;;;5032249;28;20515;-89
2020/12/17 03:10:45;;;;;;;27.90;24.70;;;4.90;99.90;;;;;;5032266;28;20950;-90
2020/12/17 03:13:11;;;;;;;27.10;23.53;;;4.90;99.90;;;;;;5030713;28;20446;-88
2020/12/17 03:15:37;;;;;;;33.50;24.43;;;4.90;99.90;;;;;;5031997;28;20445;-89
2020/12/17 03:18:04;;;;;;;27.03;23.70;;;4.90;99.90;;;;;;5031969;28;20449;-88
2020/12/17 03:20:31;;;;;;;29.67;22.77;;;4.90;99.90;;;;;;5030368;28;20847;-88
2020/12/17 03:22:57;;;;;;;25.87;22.47;;;5.00;99.90;;;;;;5030632;28;20473;-90
2020/12/17 03:25:23;;;;;;;28.10;21.90;;;5.00;99.90;;;;;;5031918;28;20461;-89
2020/12/17 03:27:49;;;;;;;24.07;20.60;;;5.00;99.90;;;;;;5030405;28;20449;-89
2020/12/17 03:30:15;;;;;;;27.77;21.37;;;5.00;99.90;;;;;;5032133;28;20460;-90
2020/12/17 03:32:41;;;;;;;25.43;20.23;;;5.00;99.90;;;;;;5030700;28;20452;-89
2020/12/17 03:35:08;;;;;;;27.47;19.40;;;5.00;99.90;;;;;;5031093;28;20448;-89
2020/12/17 03:37:35;;;;;;;24.50;20.07;;;5.00;99.90;;;;;;5031876;28;20488;-89
2020/12/17 03:40:01;;;;;;;20.77;18.60;;;5.00;99.90;;;;;;5031691;28;20465;-89
2020/12/17 03:42:27;;;;;;;23.43;20.93;;;5.00;99.90;;;;;;5031446;28;20472;-89
2020/12/17 03:44:53;;;;;;;20.70;18.27;;;5.10;99.90;;;;;;5031492;28;20449;-89
2020/12/17 03:47:19;;;;;;;23.33;19.47;;;5.10;99.90;;;;;;5031340;28;20453;-89
2020/12/17 03:49:45;;;;;;;21.60;19.37;;;5.10;99.90;;;;;;5029604;28;20464;-90
2020/12/17 03:52:12;;;;;;;27.40;18.00;;;5.10;99.90;;;;;;5030947;28;20448;-89
2020/12/17 03:54:39;;;;;;;20.70;17.90;;;5.10;99.90;;;;;;5031310;28;20798;-88
2020/12/17 03:57:05;;;;;;;24.10;19.00;;;5.10;99.90;;;;;;5031419;28;20453;-89
2020/12/17 03:59:31;;;;;;;20.50;18.30;;;5.00;99.90;;;;;;5028149;28;20449;-89
2020/12/17 04:01:57;;;;;;;18.87;16.90;;;5.00;99.90;;;;;;5031234;28;20445;-89
2020/12/17 04:04:23;;;;;;;18.97;17.03;;;5.00;99.90;;;;;;5030180;28;20503;-89
2020/12/17 04:06:49;;;;;;;24.43;19.07;;;5.00;99.90;;;;;;5031144;28;20464;-89
2020/12/17 04:09:17;;;;;;;18.47;16.47;;;4.90;99.90;;;;;;5031069;28;20445;-90
2020/12/17 04:11:43;;;;;;;24.13;19.00;;;5.00;99.90;;;;;;5031209;28;20504;-89
2020/12/17 04:14:09;;;;;;;23.60;18.13;;;4.90;99.90;;;;;;5029928;28;20442;-89
2020/12/17 04:16:35;;;;;;;22.37;17.47;;;4.90;99.90;;;;;;5031192;28;20980;-90
2020/12/17 04:19:01;;;;;;;19.93;16.40;;;4.90;99.90;;;;;;5031407;28;20467;-90
2020/12/17 04:21:27;;;;;;;19.57;16.80;;;4.90;99.90;;;;;;5043877;28;20453;-90
2020/12/17 04:23:54;;;;;;;20.13;17.20;;;4.90;99.90;;;;;;5038981;28;20536;-90
2020/12/17 04:26:21;;;;;;;24.17;18.33;;;4.90;99.90;;;;;;5030731;28;20441;-90
2020/12/17 04:28:47;;;;;;;18.17;16.30;;;4.90;99.90;;;;;;5026659;28;20449;-89
2020/12/17 04:31:13;;;;;;;18.37;16.03;;;4.90;99.90;;;;;;5030777;28;20469;-90
2020/12/17 04:33:39;;;;;;;18.40;16.50;;;4.80;99.90;;;;;;5029654;28;20453;-90
2020/12/17 04:36:06;;;;;;;22.07;17.93;;;4.90;99.90;;;;;;5030423;28;21008;-90
2020/12/17 04:38:32;;;;;;;22.00;16.10;;;4.90;99.90;;;;;;5030947;28;20972;-89
2020/12/17 04:41:03;;;;;;;19.20;16.30;;;4.80;99.90;;;;;;5025733;28;20535;-89
2020/12/17 04:43:30;;;;;;;19.53;17.40;;;4.90;99.90;;;;;;5031316;28;20476;-88
2020/12/17 04:45:57;;;;;;;19.43;16.33;;;4.80;99.90;;;;;;5030135;28;20508;-88
2020/12/17 04:48:26;;;;;;;17.00;15.20;;;4.80;99.90;;;;;;5030877;28;20442;-89
2020/12/17 04:50:52;;;;;;;18.67;14.87;;;4.80;99.90;;;;;;5030587;28;20466;-90
2020/12/17 04:53:19;;;;;;;17.93;15.27;;;4.80;99.90;;;;;;5030871;28;20439;-89
2020/12/17 04:55:48;;;;;;;17.77;15.87;;;4.80;99.90;;;;;;5029017;28;20445;-89
2020/12/17 04:58:20;;;;;;;17.70;15.77;;;4.80;99.90;;;;;;5030815;28;20453;-89
2020/12/17 05:00:53;;;;;;;16.00;14.37;;;4.90;99.90;;;;;;5028089;28;20508;-89
2020/12/17 05:03:21;;;;;;;15.87;13.80;;;4.90;99.90;;;;;;5029506;28;20526;-89
2020/12/17 05:05:51;;;;;;;14.97;13.37;;;4.90;99.90;;;;;;5031254;28;20463;-89
2020/12/17 05:08:18;;;;;;;20.60;14.37;;;4.90;99.90;;;;;;5033044;28;20445;-89
2020/12/17 05:10:44;;;;;;;14.00;12.70;;;5.00;99.90;;;;;;5034438;28;20561;-89
2020/12/17 05:13:11;;;;;;;16.20;13.10;;;5.00;99.90;;;;;;5034626;28;20440;-89
2020/12/17 05:15:38;;;;;;;16.77;13.73;;;4.90;99.90;;;;;;5033446;28;20821;-89
2020/12/17 05:18:07;;;;;;;13.20;11.80;;;4.90;99.90;;;;;;5034384;28;20445;-90
2020/12/17 05:20:35;;;;;;;14.80;12.97;;;5.00;99.90;;;;;;5034474;28;20488;-90
2020/12/17 05:23:02;;;;;;;15.40;13.37;;;5.00;99.90;;;;;;5034364;28;20472;-90
2020/12/17 05:25:30;;;;;;;14.80;13.17;;;5.00;99.90;;;;;;5033328;28;20449;-89
2020/12/17 05:28:01;;;;;;;15.93;14.30;;;5.00;99.90;;;;;;5034441;28;20452;-95
2020/12/17 05:30:32;;;;;;;16.33;14.50;;;4.90;99.90;;;;;;5035312;28;20631;-90
2020/12/17 05:32:59;;;;;;;19.80;16.10;;;4.90;99.90;;;;;;5035006;28;20480;-89
2020/12/17 05:35:31;;;;;;;16.67;14.87;;;4.90;99.90;;;;;;5032609;28;20969;-90
2020/12/17 05:38:00;;;;;;;14.87;13.37;;;4.80;99.90;;;;;;5034480;28;20449;-89
2020/12/17 05:40:26;;;;;;;17.53;15.43;;;4.80;99.90;;;;;;5031627;28;20540;-90
2020/12/17 05:42:52;;;;;;;15.07;13.60;;;4.80;99.90;;;;;;5034069;28;20481;-89
2020/12/17 05:45:26;;;;;;;15.73;13.27;;;4.80;99.90;;;;;;5029877;28;20450;-89
2020/12/17 05:48:13;;;;;;;15.40;13.57;;;4.80;99.90;;;;;;5014585;28;20458;-90
2020/12/17 05:50:50;;;;;;;16.30;14.30;;;4.70;99.90;;;;;;5020218;28;20472;-89
2020/12/17 05:53:17;;;;;;;19.07;16.90;;;4.70;99.90;;;;;;5034497;28;20441;-89
2020/12/17 05:55:43;;;;;;;16.77;14.37;;;4.70;99.90;;;;;;5026979;28;20454;-89
2020/12/17 05:58:10;;;;;;;19.27;16.87;;;4.70;99.90;;;;;;5014429;28;20511;-89
2020/12/17 06:00:37;;;;;;;21.77;14.10;;;4.70;99.90;;;;;;5014852;28;20967;-89
2020/12/17 06:03:03;;;;;;;19.70;16.30;;;4.60;99.90;;;;;;5014381;28;20496;-90
2020/12/17 06:05:31;;;;;;;17.00;15.20;;;4.60;99.90;;;;;;5018467;28;20503;-90
2020/12/17 06:08:00;;;;;;;21.13;17.17;;;4.60;99.90;;;;;;5033926;28;20540;-89
2020/12/17 06:10:27;;;;;;;22.07;19.00;;;4.60;99.90;;;;;;5030302;28;20476;-87
2020/12/17 06:12:55;;;;;;;23.53;17.87;;;4.60;99.90;;;;;;5014277;28;20454;-89
2020/12/17 06:15:23;;;;;;;25.87;21.30;;;4.50;99.90;;;;;;5016577;28;20822;-89
2020/12/17 06:17:51;;;;;;;21.03;17.67;;;4.50;99.90;;;;;;5034008;28;20445;-90
2020/12/17 06:20:18;;;;;;;20.37;16.73;;;4.50;99.90;;;;;;5031467;28;20456;-90
2020/12/17 06:22:51;;;;;;;20.10;16.60;;;4.50;99.90;;;;;;5013729;28;21063;-89
2020/12/17 06:25:19;;;;;;;22.10;17.57;;;4.60;99.90;;;;;;5015837;28;20549;-89
2020/12/17 06:27:47;;;;;;;25.17;17.90;;;4.60;99.90;;;;;;5033836;28;20462;-89
2020/12/17 06:30:16;;;;;;;22.97;16.70;;;4.60;99.90;;;;;;5032063;28;20548;-89
2020/12/17 06:32:43;;;;;;;21.53;18.17;;;4.60;99.90;;;;;;5013880;28;20473;-89
2020/12/17 06:35:24;;;;;;;21.77;16.73;;;4.50;99.90;;;;;;5015233;28;20548;-89
2020/12/17 06:37:53;;;;;;;27.40;17.70;;;4.50;99.90;;;;;;5034135;28;20528;-90
2020/12/17 06:40:29;;;;;;;24.77;17.33;;;4.50;99.90;;;;;;5046233;28;20496;-90
2020/12/17 06:42:56;;;;;;;22.30;18.30;;;4.40;99.90;;;;;;5023540;28;21042;-90
2020/12/17 06:45:26;;;;;;;23.30;16.70;;;4.50;99.90;;;;;;5016312;28;20466;-90
2020/12/17 06:47:53;;;;;;;21.97;18.00;;;4.50;99.90;;;;;;5033371;28;21011;-90
2020/12/17 06:50:23;;;;;;;18.23;15.30;;;4.50;99.90;;;;;;5031448;28;20473;-91
2020/12/17 06:53:11;;;;;;;19.07;16.60;;;4.60;99.90;;;;;;5013504;28;20951;-90
2020/12/17 06:55:40;;;;;;;24.27;16.67;;;4.60;99.90;;;;;;5011731;28;20453;-90
2020/12/17 06:58:06;;;;;;;22.70;16.83;;;4.60;99.90;;;;;;5033105;28;20476;-90
2020/12/17 07:00:32;;;;;;;23.33;18.47;;;4.60;99.90;;;;;;5029728;28;20466;-91
2020/12/17 07:02:59;;;;;;;31.87;18.57;;;4.60;99.90;;;;;;5013194;28;20480;-91
2020/12/17 07:05:32;;;;;;;24.90;19.37;;;4.60;99.90;;;;;;5015269;28;20472;-91
2020/12/17 07:07:59;;;;;;;21.30;19.00;;;4.60;99.90;;;;;;5032999;28;20449;-90
2020/12/17 07:10:26;;;;;;;26.63;21.53;;;4.50;99.90;;;;;;5030933;28;20476;-90
2020/12/17 07:12:53;;;;;;;28.40;20.60;;;4.60;99.90;;;;;;5012915;28;20519;-91
2020/12/17 07:15:32;;;;;;;28.53;21.30;;;4.60;99.90;;;;;;5022013;28;20821;-89
2020/12/17 07:18:17;;;;;;;28.63;17.60;;;4.70;99.90;;;;;;5032711;28;20856;-90
2020/12/17 07:20:44;;;;;;;30.77;18.23;;;4.70;99.90;;;;;;5020446;28;20480;-89
2020/12/17 07:23:10;;;;;;;23.47;18.50;;;4.80;99.90;;;;;;5012822;28;20489;-89
2020/12/17 07:25:37;;;;;;;37.90;21.20;;;4.90;99.90;;;;;;5023650;28;20471;-91
2020/12/17 07:28:05;;;;;;;23.70;17.60;;;4.90;99.90;;;;;;5031946;28;21152;-89
2020/12/17 07:30:31;;;;;;;25.33;16.67;;;5.00;99.90;;;;;;5022209;28;20482;-89
2020/12/17 07:32:57;;;;;;;25.03;16.43;;;5.00;99.90;;;;;;5012670;28;20438;-89
2020/12/17 07:35:27;;;;;;;21.07;16.30;;;5.00;99.90;;;;;;5021638;28;20454;-89
2020/12/17 07:37:55;;;;;;;21.67;17.93;;;5.00;99.90;;;;;;5032391;28;20980;-90
2020/12/17 07:40:27;;;;;;;18.47;15.17;;;5.10;99.90;;;;;;5023428;28;20525;-89
2020/12/17 07:43:13;;;;;;;17.73;15.10;;;5.10;99.90;;;;;;5012434;28;20481;-89
2020/12/17 07:45:41;;;;;;;18.70;16.50;;;5.10;99.90;;;;;;5023451;28;20476;-88
2020/12/17 07:48:41;;;;;;;21.43;15.40;;;5.20;99.90;;;;;;5032408;28;21003;-89
2020/12/17 07:51:31;;;;;;;18.77;14.80;;;5.20;99.90;;;;;;5014662;28;20533;-89
2020/12/17 07:54:02;;;;;;;17.67;12.97;;;5.20;99.90;;;;;;5012308;28;20845;-89
2020/12/17 07:56:28;;;;;;;20.27;14.00;;;5.30;99.90;;;;;;5030407;28;20461;-89
2020/12/17 07:58:55;;;;;;;18.87;14.63;;;5.30;99.90;;;;;;5032047;28;20450;-89
2020/12/17 08:01:21;;;;;;;17.20;12.80;;;5.40;99.90;;;;;;5015651;28;20524;-90
2020/12/17 08:03:49;;;;;;;17.43;14.33;;;5.40;99.90;;;;;;5012496;28;20497;-88
2020/12/17 08:06:17;;;;;;;17.10;13.80;;;5.50;99.90;;;;;;5028613;28;20911;-88
2020/12/17 08:08:43;;;;;;;16.93;14.93;;;5.50;99.90;;;;;;5032122;28;20449;-89
2020/12/17 08:11:13;;;;;;;17.47;14.47;;;5.60;99.90;;;;;;5017439;28;20474;-89
2020/12/17 08:13:39;;;;;;;18.43;14.37;;;5.70;99.90;;;;;;5011494;28;20446;-89
2020/12/17 08:16:07;;;;;;;16.90;13.20;;;5.70;99.90;;;;;;5012271;28;20504;-89
2020/12/17 08:18:34;;;;;;;21.93;15.37;;;5.90;99.90;;;;;;5012115;28;20461;-88
2020/12/17 08:21:04;;;;;;;15.43;13.10;;;5.90;99.90;;;;;;5025691;28;20473;-89
2020/12/17 08:23:32;;;;;;;15.73;14.10;;;5.90;99.90;;;;;;5031717;28;21021;-89
2020/12/17 08:26:01;;;;;;;15.40;12.50;;;6.00;99.90;;;;;;5017476;28;20462;-91
2020/12/17 08:28:31;;;;;;;17.70;13.23;;;6.00;99.90;;;;;;5011957;28;20537;-89
2020/12/17 08:31:09;;;;;;;18.50;11.50;;;6.10;99.90;;;;;;5024144;28;20465;-89
2020/12/17 08:33:40;;;;;;;15.33;12.53;;;6.20;99.90;;;;;;5031551;28;20456;-88
2020/12/17 08:36:09;;;;;;;13.43;11.50;;;6.30;99.90;;;;;;5016882;28;20533;-89
2020/12/17 08:38:36;;;;;;;15.97;11.60;;;6.40;99.90;;;;;;5011772;28;20446;-89
2020/12/17 08:41:04;;;;;;;14.53;11.47;;;6.40;99.90;;;;;;5020536;28;20866;-89
2020/12/17 08:43:38;;;;;;;14.80;10.67;;;6.50;99.90;;;;;;5025845;28;20490;-88
2020/12/17 08:46:08;;;;;;;14.43;11.37;;;6.60;99.90;;;;;;5011589;28;20434;-92
2020/12/17 08:48:36;;;;;;;16.40;12.63;;;6.60;99.90;;;;;;5016108;28;20532;-86
2020/12/17 08:51:03;;;;;;;14.70;12.43;;;6.70;99.90;;;;;;5031134;28;20518;-85
2020/12/17 08:53:30;;;;;;;13.90;11.30;;;6.70;99.90;;;;;;5027878;28;20446;-90
2020/12/17 08:56:04;;;;;;;12.40;10.50;;;6.70;99.90;;;;;;5034775;28;20457;-88
2020/12/17 08:58:30;;;;;;;13.00;9.70;;;6.70;99.90;;;;;;5049408;28;20436;-90
2020/12/17 09:00:57;;;;;;;13.33;9.37;;;6.80;99.90;;;;;;5030102;28;20465;-88
2020/12/17 09:03:25;;;;;;;17.90;10.70;;;6.90;99.90;;;;;;5031154;28;20477;-89
2020/12/17 09:06:03;;;;;;;11.83;8.97;;;7.00;99.90;;;;;;5028800;28;20988;-90
2020/12/17 09:08:29;;;;;;;10.90;9.37;;;7.00;99.90;;;;;;5027853;28;20453;-91
2020/12/17 09:10:55;;;;;;;12.40;10.80;;;7.00;99.90;;;;;;5030615;28;20461;-90
2020/12/17 09:13:22;;;;;;;15.70;11.67;;;7.00;99.90;;;;;;5030833;28;20453;-90
2020/12/17 09:15:58;;;;;;;12.57;9.43;;;7.00;99.90;;;;;;5027568;28;20452;-91
2020/12/17 09:18:26;;;;;;;12.43;10.40;;;7.00;99.90;;;;;;5029904;28;20528;-91
2020/12/17 09:21:10;;;;;;;12.13;10.30;;;7.00;99.90;;;;;;5030030;28;20561;-90
2020/12/17 09:23:36;;;;;;;12.70;10.63;;;6.90;99.90;;;;;;5029755;28;21048;-90
2020/12/17 09:26:13;;;;;;;15.00;10.27;;;6.90;99.90;;;;;;5030487;28;20499;-89
2020/12/17 09:28:48;;;;;;;11.60;10.40;;;7.00;99.90;;;;;;5028921;28;20953;-89
2020/12/17 09:31:29;;;;;;;11.80;9.67;;;7.10;99.90;;;;;;5028255;28;20460;-89
2020/12/17 09:34:07;;;;;;;11.30;10.13;;;7.00;99.90;;;;;;5031065;28;20783;-90
2020/12/17 09:36:34;;;;;;;15.57;11.87;;;7.10;99.90;;;;;;5031022;28;20452;-91
2020/12/17 09:39:03;;;;;;;10.00;9.00;;;7.00;99.90;;;;;;5031591;28;20523;-91
2020/12/17 09:41:30;;;;;;;13.27;9.63;;;7.10;99.90;;;;;;5031296;28;20554;-90
2020/12/17 09:43:56;;;;;;;15.27;9.70;;;7.10;99.90;;;;;;5031918;28;20477;-89
2020/12/17 09:46:23;;;;;;;11.83;8.93;;;7.10;99.90;;;;;;5030781;28;20449;-91
2020/12/17 09:48:49;;;;;;;19.23;9.80;;;7.10;99.90;;;;;;5033383;28;20442;-90
2020/12/17 09:51:20;;;;;;;10.37;8.30;;;7.20;99.90;;;;;;5034243;28;20465;-90
2020/12/17 09:53:48;;;;;;;11.80;9.50;;;7.40;99.90;;;;;;5035464;28;20798;-90
2020/12/17 09:56:15;;;;;;;14.70;9.70;;;8.00;99.90;;;;;;5034974;28;20445;-89
2020/12/17 09:58:43;;;;;;;10.23;9.23;;;8.60;99.90;;;;;;5035511;28;20449;-89
2020/12/17 10:01:10;;;;;;;15.07;9.57;;;9.00;99.90;;;;;;5037456;28;20850;-89
2020/12/17 10:03:37;;;;;;;10.67;9.23;;;9.40;99.90;;;;;;5039247;28;20476;-89
2020/12/17 10:06:03;;;;;;;9.83;8.83;;;10.00;99.90;;;;;;5038121;28;20442;-89
2020/12/17 10:08:30;;;;;;;11.40;9.23;;;10.60;99.90;;;;;;5038804;28;20507;-89
2020/12/17 10:10:56;;;;;;;13.83;9.57;;;11.30;99.90;;;;;;5037544;28;20477;-89
2020/12/17 10:13:22;;;;;;;12.97;10.50;;;12.00;99.90;;;;;;5040537;28;20448;-89
2020/12/17 10:15:49;;;;;;;15.23;11.40;;;12.60;99.90;;;;;;5038869;28;20454;-90
2020/12/17 10:18:15;;;;;;;15.73;11.03;;;13.40;99.90;;;;;;5041212;28;20476;-90
2020/12/17 10:20:41;;;;;;;10.97;8.77;;;14.10;97.90;;;;;;5036772;28;20829;-88
2020/12/17 10:23:08;;;;;;;10.70;8.90;;;13.60;97.40;;;;;;5036028;28;20490;-90
2020/12/17 10:25:35;;;;;;;14.83;10.80;;;13.10;97.90;;;;;;5041551;28;20476;-91
2020/12/17 10:28:01;;;;;;;12.13;9.27;;;12.40;98.90;;;;;;5051166;28;20429;-92
2020/12/17 10:30:28;;;;;;;8.80;7.87;;;12.00;99.90;;;;;;5044149;28;20878;-91
2020/12/17 10:32:56;;;;;;;12.30;8.73;;;11.80;99.90;;;;;;5037935;28;20444;-91
2020/12/17 10:35:22;;;;;;;9.13;8.07;;;12.40;99.90;;;;;;5037922;28;20454;-92
2020/12/17 10:37:48;;;;;;;12.43;7.37;;;12.20;99.90;;;;;;5038295;28;20446;-90
2020/12/17 10:40:14;;;;;;;12.20;8.90;;;11.90;99.90;;;;;;5036446;28;20471;-90
2020/12/17 10:42:42;;;;;;;9.30;7.80;;;11.30;99.90;;;;;;5034840;28;20954;-92
2020/12/17 10:45:09;;;;;;;10.33;8.00;;;11.50;99.90;;;;;;5033023;28;20442;-90
2020/12/17 10:47:36;;;;;;;12.00;7.17;;;13.20;99.90;;;;;;5033824;28;20448;-90
2020/12/17 10:50:03;;;;;;;11.40;7.23;;;14.80;97.80;;;;;;5036050;28;20524;-89
2020/12/17 10:52:29;;;;;;;10.53;7.03;;;16.30;95.10;;;;;;5036632;28;20454;-91
2020/12/17 10:54:55;;;;;;;10.30;7.40;;;16.80;93.70;;;;;;5036067;28;20441;-91
2020/12/17 10:57:22;;;;;;;9.53;7.87;;;17.80;92.40;;;;;;5035231;28;20429;-91
2020/12/17 10:59:49;;;;;;;8.17;7.37;;;18.40;91.50;;;;;;5035379;28;20437;-91
2020/12/17 11:02:15;;;;;;;10.20;7.20;;;18.80;88.60;;;;;;5036554;28;20433;-91
2020/12/17 11:04:42;;;;;;;9.70;7.60;;;18.60;88.80;;;;;;5034748;28;20807;-92
2020/12/17 11:07:08;;;;;;;7.70;6.83;;;18.90;87.10;;;;;;5032864;28;20509;-91
2020/12/17 11:09:37;;;;;;;8.13;6.13;;;18.60;86.80;;;;;;5036138;28;20834;-91
2020/12/17 11:12:03;;;;;;;12.37;7.40;;;17.30;88.90;;;;;;5194632;22;20497;-90
2020/12/17 11:14:29;;;;;;;10.30;7.53;;;16.90;90.80;;;;;;5060039;28;20477;-90
2020/12/17 11:16:56;;;;;;;8.33;6.70;;;15.90;91.60;;;;;;5072497;28;20423;-90
2020/12/17 11:19:22;;;;;;;8.43;6.93;;;14.80;93.20;;;;;;5066051;28;20450;-90
2020/12/17 11:21:48;;;;;;;8.00;6.77;;;13.90;94.60;;;;;;5054927;28;20475;-90
2020/12/17 11:24:15;;;;;;;12.27;7.27;;;13.10;96.40;;;;;;5056258;28;20443;-90
2020/12/17 11:26:43;;;;;;;9.47;6.33;;;12.30;98.20;;;;;;5052999;28;20441;-90
2020/12/17 11:29:09;;;;;;;10.43;6.97;;;11.90;99.20;;;;;;5054642;28;20523;-89
2020/12/17 11:31:36;;;;;;;12.30;7.23;;;11.80;99.80;;;;;;5055513;28;20469;-89
2020/12/17 11:34:03;;;;;;;8.27;6.90;;;11.70;99.90;;;;;;5053182;28;20477;-90
2020/12/17 11:36:29;;;;;;;7.50;6.80;;;11.90;99.90;;;;;;5055637;28;20437;-89
2020/12/17 11:38:55;;;;;;;11.27;7.30;;;11.90;99.90;;;;;;5058148;28;20448;-89
2020/12/17 11:41:22;;;;;;;8.87;6.33;;;12.00;99.90;;;;;;5059416;28;20456;-90
2020/12/17 11:43:48;;;;;;;10.83;6.70;;;11.70;99.90;;;;;;5062741;28;20443;-88
2020/12/17 11:46:18;;;;;;;10.30;6.20;;;11.70;99.90;;;;;;5058820;28;20445;-90
2020/12/17 11:48:44;;;;;;;8.43;6.30;;;11.80;99.90;;;;;;5053528;28;20459;-91
2020/12/17 11:51:13;;;;;;;9.00;7.20;;;11.70;99.90;;;;;;5056021;28;20460;-89
2020/12/17 11:53:39;;;;;;;9.47;6.70;;;11.70;99.90;;;;;;5053475;28;20484;-90
2020/12/17 11:56:05;;;;;;;8.53;7.03;;;11.70;99.90;;;;;;5053946;28;20445;-90
2020/12/17 11:58:31;;;;;;;10.63;7.50;;;11.90;99.90;;;;;;5053370;28;20436;-93
2020/12/17 12:00:57;;;;;;;8.17;6.43;;;12.40;99.90;;;;;;5051675;28;20466;-90
2020/12/17 12:03:24;;;;;;;8.60;6.17;;;12.70;99.90;;;;;;5051085;28;20484;-89
2020/12/17 12:05:50;;;;;;;9.17;6.53;;;12.50;99.90;;;;;;5055331;28;20448;-90
2020/12/17 12:08:17;;;;;;;7.90;5.80;;;12.70;99.90;;;;;;5055642;28;20432;-89
2020/12/17 12:10:43;;;;;;;7.47;6.30;;;12.80;99.90;;;;;;5050396;28;21015;-90
2020/12/17 12:13:09;;;;;;;7.40;6.60;;;12.90;99.90;;;;;;5051487;28;20471;-89
2020/12/17 12:15:35;;;;;;;10.20;7.40;;;13.00;99.90;;;;;;5050759;28;20429;-90
2020/12/17 12:18:01;;;;;;;6.63;6.03;;;12.90;99.90;;;;;;5051414;28;20452;-90
2020/12/17 12:20:27;;;;;;;7.93;7.00;;;12.80;99.90;;;;;;5051107;28;20481;-90
2020/12/17 12:22:54;;;;;;;12.33;8.13;;;12.60;99.90;;;;;;5054377;28;20447;-91
2020/12/17 12:25:20;;;;;;;8.93;7.33;;;12.50;99.90;;;;;;5051647;28;20444;-89
2020/12/17 12:27:48;;;;;;;8.40;7.30;;;12.30;99.90;;;;;;5053088;28;20513;-89
2020/12/17 12:30:14;;;;;;;7.63;6.93;;;12.30;99.90;;;;;;5053006;28;20570;-89
2020/12/17 12:32:42;;;;;;;9.90;8.27;;;12.40;99.90;;;;;;5054621;28;20438;-90
2020/12/17 12:35:08;;;;;;;8.93;8.03;;;12.60;99.90;;;;;;5055736;28;20480;-90
2020/12/17 12:37:34;;;;;;;11.07;7.67;;;12.70;99.90;;;;;;5053973;28;20449;-90
2020/12/17 12:40:00;;;;;;;10.80;7.77;;;12.60;99.90;;;;;;5053430;28;20493;-91
2020/12/17 12:42:28;;;;;;;10.67;7.40;;;12.70;99.90;;;;;;5056096;28;20435;-91
2020/12/17 12:44:54;;;;;;;8.43;7.63;;;12.80;99.90;;;;;;5053875;28;20441;-90
2020/12/17 12:47:20;;;;;;;9.37;8.30;;;12.70;99.90;;;;;;5055221;28;20455;-90
2020/12/17 12:49:47;;;;;;;12.07;10.97;;;12.50;99.90;;;;;;5065351;28;20436;-94
2020/12/17 12:52:13;;;;;;;9.77;7.93;;;12.40;99.90;;;;;;5075050;28;20427;-94
2020/12/17 12:54:39;;;;;;;11.57;7.70;;;12.30;99.90;;;;;;5068738;28;20550;-94
2020/12/17 12:57:06;;;;;;;9.30;7.17;;;12.20;99.90;;;;;;5061183;28;20476;-94
2020/12/17 12:59:34;;;;;;;9.23;8.33;;;12.10;99.90;;;;;;5055935;28;20463;-94
2020/12/17 13:02:00;;;;;;;9.87;7.47;;;11.80;99.90;;;;;;5056637;28;20630;-94
2020/12/17 13:04:26;;;;;;;8.40;7.50;;;11.60;99.90;;;;;;5056282;28;20441;-93
2020/12/17 13:06:55;;;;;;;9.27;7.63;;;11.70;99.90;;;;;;5060703;28;20436;-94
2020/12/17 13:09:23;;;;;;;10.17;7.87;;;11.90;99.90;;;;;;5058330;28;20449;-95
2020/12/17 13:11:52;;;;;;;8.67;7.20;;;12.00;99.90;;;;;;5056186;28;20484;-94
2020/12/17 13:14:18;;;;;;;7.70;6.90;;;12.10;99.90;;;;;;5056279;28;20478;-94
2020/12/17 13:16:50;;;;;;;8.43;7.63;;;12.10;99.90;;;;;;5058103;28;20459;-94
2020/12/17 13:19:17;;;;;;;7.57;6.83;;;12.10;99.90;;;;;;5055635;28;20426;-94
2020/12/17 13:21:43;;;;;;;9.73;8.50;;;12.10;99.90;;;;;;5056953;28;20495;-91
2020/12/17 13:24:09;;;;;;;8.00;7.20;;;12.10;99.90;;;;;;5061724;28;20493;-91
2020/12/17 13:26:36;;;;;;;9.67;7.73;;;12.10;99.90;;;;;;5068888;28;20448;-91
2020/12/17 13:29:02;;;;;;;9.07;8.10;;;12.00;99.90;;;;;;5065488;28;20790;-91
2020/12/17 13:31:28;;;;;;;10.60;7.67;;;12.00;99.90;;;;;;5069015;28;20996;-92
2020/12/17 13:33:56;;;;;;;9.23;7.13;;;12.00;99.90;;;;;;5077828;28;20473;-90
2020/12/17 13:36:22;;;;;;;10.83;8.50;;;12.00;99.90;;;;;;5077068;28;20468;-91
2020/12/17 13:38:48;;;;;;;12.00;9.13;;;12.00;99.90;;;;;;5085722;28;20443;-91
2020/12/17 13:41:14;;;;;;;9.63;8.50;;;12.10;99.90;;;;;;5064031;28;20479;-92
2020/12/17 13:43:41;;;;;;;13.17;7.27;;;12.10;99.90;;;;;;5066108;28;20457;-91
2020/12/17 13:46:07;;;;;;;16.73;8.97;;;12.20;99.90;;;;;;5067706;28;20499;-92
2020/12/17 13:48:33;;;;;;;8.93;7.70;;;12.10;99.90;;;;;;5065368;28;20449;-91
2020/12/17 13:51:00;;;;;;;11.00;8.93;;;12.10;99.90;;;;;;5072055;28;20468;-92
2020/12/17 13:53:26;;;;;;;9.17;7.10;;;12.00;99.90;;;;;;5065614;28;21018;-92
2020/12/17 13:55:54;;;;;;;12.20;7.90;;;11.90;99.90;;;;;;5062296;28;20496;-91
2020/12/17 13:58:20;;;;;;;15.00;8.30;;;11.90;99.90;;;;;;5062983;28;20482;-91
2020/12/17 14:00:48;;;;;;;11.87;10.67;;;11.90;99.90;;;;;;5064255;28;20465;-92